Avenel, New Jersey
Current Conditions -  °F | °C
As of 11:55 PM on Saturday 25 Oct 2014 (Local Time) from KLDJ Reporting Station
Broken Clouds Broken Clouds  
Wind Chill: 18°   Ceiling: 10000
Heat Index: 18°   Visibility: 10mi
Dew Point:   Wind: 6mph
Humidity: 58%   Direction: 260°W
Pressure: 29.59"   Gusts: NA
Location:  40.58°N, 74.28°W
Report Text: KLDJ 260355Z AUTO 26005KT 10SM SCT085 BKN100 18/09 A2959 RMK AO2 T01750091
Loading
Personal Weather Stations






























Interactive Weather Map
Tropical Storm Tracking
New forecast layout! Learn more

10-Day Weather Forecast

Advertisements
Track Severe Weather on mobile